sensor_id;sensor_type;location;lat;lon;timestamp;temperature;humidity
40808;DHT22;26523;52.504;13.498;2023-09-19T00:01:08;17.50;99.90
40808;DHT22;26523;52.504;13.498;2023-09-19T00:03:35;17.50;99.90
40808;DHT22;26523;52.504;13.498;2023-09-19T00:06:04;17.50;99.90
40808;DHT22;26523;52.504;13.498;2023-09-19T00:08:30;17.50;99.90
40808;DHT22;26523;52.504;13.498;2023-09-19T00:10:56;17.50;99.90
40808;DHT22;26523;52.504;13.498;2023-09-19T00:13:29;17.40;99.90
40808;DHT22;26523;52.504;13.498;2023-09-19T00:15:57;17.40;99.90
40808;DHT22;26523;52.504;13.498;2023-09-19T00:18:24;17.40;99.90
40808;DHT22;26523;52.504;13.498;2023-09-19T00:20:57;17.40;99.90
40808;DHT22;26523;52.504;13.498;2023-09-19T00:23:23;17.30;99.90
40808;DHT22;26523;52.504;13.498;2023-09-19T00:25:50;17.20;99.90
40808;DHT22;26523;52.504;13.498;2023-09-19T00:28:17;17.20;99.90
40808;DHT22;26523;52.504;13.498;2023-09-19T00:30:45;17.20;99.90
40808;DHT22;26523;52.504;13.498;2023-09-19T00:33:11;17.20;99.90
40808;DHT22;26523;52.504;13.498;2023-09-19T00:35:47;17.20;99.90
40808;DHT22;26523;52.504;13.498;2023-09-19T00:38:13;17.20;99.90
40808;DHT22;26523;52.504;13.498;2023-09-19T00:40:44;17.10;99.90
40808;DHT22;26523;52.504;13.498;2023-09-19T00:43:11;17.10;99.90
40808;DHT22;26523;52.504;13.498;2023-09-19T00:45:41;17.00;99.90
40808;DHT22;26523;52.504;13.498;2023-09-19T00:48:08;17.00;99.90
40808;DHT22;26523;52.504;13.498;2023-09-19T00:50:35;17.00;99.90
40808;DHT22;26523;52.504;13.498;2023-09-19T00:53:01;17.00;99.90
40808;DHT22;26523;52.504;13.498;2023-09-19T00:55:34;16.90;99.90
40808;DHT22;26523;52.504;13.498;2023-09-19T00:58:01;16.80;99.90
40808;DHT22;26523;52.504;13.498;2023-09-19T01:00:26;16.90;99.90
40808;DHT22;26523;52.504;13.498;2023-09-19T01:02:52;16.90;99.90
40808;DHT22;26523;52.504;13.498;2023-09-19T01:05:18;16.90;99.90
40808;DHT22;26523;52.504;13.498;2023-09-19T01:07:44;16.90;99.90
40808;DHT22;26523;52.504;13.498;2023-09-19T01:10:16;16.90;99.90
40808;DHT22;26523;52.504;13.498;2023-09-19T01:13:03;16.90;99.90
40808;DHT22;26523;52.504;13.498;2023-09-19T01:18:53;16.90;99.90
40808;DHT22;26523;52.504;13.498;2023-09-19T01:21:32;16.90;99.90
40808;DHT22;26523;52.504;13.498;2023-09-19T01:29:37;16.90;99.90
40808;DHT22;26523;52.504;13.498;2023-09-19T01:32:05;16.90;99.90
40808;DHT22;26523;52.504;13.498;2023-09-19T01:34:53;16.80;99.90
40808;DHT22;26523;52.504;13.498;2023-09-19T01:37:21;16.80;99.90
40808;DHT22;26523;52.504;13.498;2023-09-19T01:40:11;16.80;99.90
40808;DHT22;26523;52.504;13.498;2023-09-19T01:48:48;16.80;99.90
40808;DHT22;26523;52.504;13.498;2023-09-19T01:51:24;16.80;99.90
40808;DHT22;26523;52.504;13.498;2023-09-19T01:54:03;16.90;99.90
40808;DHT22;26523;52.504;13.498;2023-09-19T01:56:50;16.90;99.90
40808;DHT22;26523;52.504;13.498;2023-09-19T01:59:25;16.90;99.90
40808;DHT22;26523;52.504;13.498;2023-09-19T02:02:13;17.00;99.90
40808;DHT22;26523;52.504;13.498;2023-09-19T02:04:40;17.00;99.90
40808;DHT22;26523;52.504;13.498;2023-09-19T02:07:06;17.00;99.90
40808;DHT22;26523;52.504;13.498;2023-09-19T02:09:31;17.00;99.90
40808;DHT22;26523;52.504;13.498;2023-09-19T02:12:01;17.00;99.90
40808;DHT22;26523;52.504;13.498;2023-09-19T02:14:27;16.90;99.90
40808;DHT22;26523;52.504;13.498;2023-09-19T02:16:55;16.90;99.90
40808;DHT22;26523;52.504;13.498;2023-09-19T02:19:21;16.80;99.90
40808;DHT22;26523;52.504;13.498;2023-09-19T02:21:47;16.70;99.90
40808;DHT22;26523;52.504;13.498;2023-09-19T02:24:14;16.70;99.90
40808;DHT22;26523;52.504;13.498;2023-09-19T02:26:42;16.60;99.90
40808;DHT22;26523;52.504;13.498;2023-09-19T02:29:07;16.60;99.90
40808;DHT22;26523;52.504;13.498;2023-09-19T02:31:33;16.60;99.90
40808;DHT22;26523;52.504;13.498;2023-09-19T02:33:59;16.60;99.90
40808;DHT22;26523;52.504;13.498;2023-09-19T02:36:26;16.50;99.90
40808;DHT22;26523;52.504;13.498;2023-09-19T02:38:51;16.50;99.90
40808;DHT22;26523;52.504;13.498;2023-09-19T02:41:37;16.50;99.90
40808;DHT22;26523;52.504;13.498;2023-09-19T02:44:03;16.50;99.90
40808;DHT22;26523;52.504;13.498;2023-09-19T02:46:34;16.40;99.90
40808;DHT22;26523;52.504;13.498;2023-09-19T02:49:02;16.50;99.90
40808;DHT22;26523;52.504;13.498;2023-09-19T02:51:31;16.50;99.90
40808;DHT22;26523;52.504;13.498;2023-09-19T02:54:01;16.50;99.90
40808;DHT22;26523;52.504;13.498;2023-09-19T02:56:28;16.50;99.90
40808;DHT22;26523;52.504;13.498;2023-09-19T02:58:56;16.40;99.90
40808;DHT22;26523;52.504;13.498;2023-09-19T03:01:21;16.40;99.90
40808;DHT22;26523;52.504;13.498;2023-09-19T03:03:48;16.40;99.90
40808;DHT22;26523;52.504;13.498;2023-09-19T03:06:14;16.30;99.90
40808;DHT22;26523;52.504;13.498;2023-09-19T03:08:43;16.30;99.90
40808;DHT22;26523;52.504;13.498;2023-09-19T03:11:24;16.30;99.90
40808;DHT22;26523;52.504;13.498;2023-09-19T03:13:52;16.40;99.90
40808;DHT22;26523;52.504;13.498;2023-09-19T03:16:19;16.30;99.90
40808;DHT22;26523;52.504;13.498;2023-09-19T03:18:48;16.40;99.90
40808;DHT22;26523;52.504;13.498;2023-09-19T03:21:15;16.50;99.90
40808;DHT22;26523;52.504;13.498;2023-09-19T03:23:40;16.60;99.90
40808;DHT22;26523;52.504;13.498;2023-09-19T03:26:41;16.60;99.90
40808;DHT22;26523;52.504;13.498;2023-09-19T03:29:07;16.60;99.90
40808;DHT22;26523;52.504;13.498;2023-09-19T03:31:34;16.60;99.90
40808;DHT22;26523;52.504;13.498;2023-09-19T03:34:02;16.60;99.90
40808;DHT22;26523;52.504;13.498;2023-09-19T03:36:29;16.70;99.90
40808;DHT22;26523;52.504;13.498;2023-09-19T03:38:55;16.70;99.90
40808;DHT22;26523;52.504;13.498;2023-09-19T03:41:22;16.70;99.90
40808;DHT22;26523;52.504;13.498;2023-09-19T03:43:47;16.80;99.90
40808;DHT22;26523;52.504;13.498;2023-09-19T03:46:13;16.80;99.90
40808;DHT22;26523;52.504;13.498;2023-09-19T03:48:40;16.80;99.90
40808;DHT22;26523;52.504;13.498;2023-09-19T03:51:07;16.80;99.90
40808;DHT22;26523;52.504;13.498;2023-09-19T03:53:34;16.80;99.90
40808;DHT22;26523;52.504;13.498;2023-09-19T03:55:59;16.80;99.90
40808;DHT22;26523;52.504;13.498;2023-09-19T03:58:25;16.90;99.90
40808;DHT22;26523;52.504;13.498;2023-09-19T04:00:55;16.90;99.90
40808;DHT22;26523;52.504;13.498;2023-09-19T04:03:21;16.80;99.90
40808;DHT22;26523;52.504;13.498;2023-09-19T04:05:47;16.80;99.90
40808;DHT22;26523;52.504;13.498;2023-09-19T04:08:15;16.80;99.90
40808;DHT22;26523;52.504;13.498;2023-09-19T04:10:43;16.80;99.90
40808;DHT22;26523;52.504;13.498;2023-09-19T04:13:09;16.80;99.90
40808;DHT22;26523;52.504;13.498;2023-09-19T04:15:35;16.80;99.90
40808;DHT22;26523;52.504;13.498;2023-09-19T04:18:04;16.80;99.90
40808;DHT22;26523;52.504;13.498;2023-09-19T04:20:30;16.80;99.90
40808;DHT22;26523;52.504;13.498;2023-09-19T04:22:55;16.80;99.90
40808;DHT22;26523;52.504;13.498;2023-09-19T04:25:23;16.80;99.90
40808;DHT22;26523;52.504;13.498;2023-09-19T04:27:49;16.80;99.90
40808;DHT22;26523;52.504;13.498;2023-09-19T04:30:15;16.80;99.90
40808;DHT22;26523;52.504;13.498;2023-09-19T04:32:43;16.80;99.90
40808;DHT22;26523;52.504;13.498;2023-09-19T04:35:10;16.80;99.90
40808;DHT22;26523;52.504;13.498;2023-09-19T04:37:39;16.80;99.90
40808;DHT22;26523;52.504;13.498;2023-09-19T04:40:07;16.90;99.90
40808;DHT22;26523;52.504;13.498;2023-09-19T04:42:42;16.80;99.90
40808;DHT22;26523;52.504;13.498;2023-09-19T04:45:08;16.80;99.90
40808;DHT22;26523;52.504;13.498;2023-09-19T04:47:40;16.80;99.90
40808;DHT22;26523;52.504;13.498;2023-09-19T04:50:09;16.80;99.90
40808;DHT22;26523;52.504;13.498;2023-09-19T04:52:40;16.80;99.90
40808;DHT22;26523;52.504;13.498;2023-09-19T04:55:17;16.80;99.90
40808;DHT22;26523;52.504;13.498;2023-09-19T04:57:50;16.80;99.90
40808;DHT22;26523;52.504;13.498;2023-09-19T05:00:20;16.80;99.90
40808;DHT22;26523;52.504;13.498;2023-09-19T05:02:52;16.70;99.90
40808;DHT22;26523;52.504;13.498;2023-09-19T05:05:18;16.70;99.90
40808;DHT22;26523;52.504;13.498;2023-09-19T05:07:47;16.70;99.90
40808;DHT22;26523;52.504;13.498;2023-09-19T05:10:16;16.80;99.90
40808;DHT22;26523;52.504;13.498;2023-09-19T05:12:44;16.80;99.90
40808;DHT22;26523;52.504;13.498;2023-09-19T05:15:12;16.80;99.90
40808;DHT22;26523;52.504;13.498;2023-09-19T05:17:39;16.80;99.90
40808;DHT22;26523;52.504;13.498;2023-09-19T05:20:06;16.70;99.90
40808;DHT22;26523;52.504;13.498;2023-09-19T05:22:58;16.70;99.90
40808;DHT22;26523;52.504;13.498;2023-09-19T05:25:27;16.80;99.90
40808;DHT22;26523;52.504;13.498;2023-09-19T05:27:58;16.80;99.90
40808;DHT22;26523;52.504;13.498;2023-09-19T05:30:26;16.80;99.90
40808;DHT22;26523;52.504;13.498;2023-09-19T05:33:12;16.80;99.90
40808;DHT22;26523;52.504;13.498;2023-09-19T05:35:38;16.80;99.90
40808;DHT22;26523;52.504;13.498;2023-09-19T05:38:07;16.80;99.90
40808;DHT22;26523;52.504;13.498;2023-09-19T05:40:42;16.80;99.90
40808;DHT22;26523;52.504;13.498;2023-09-19T05:43:09;16.80;99.90
40808;DHT22;26523;52.504;13.498;2023-09-19T05:45:36;16.80;99.90
40808;DHT22;26523;52.504;13.498;2023-09-19T05:48:14;16.80;99.90
40808;DHT22;26523;52.504;13.498;2023-09-19T05:50:41;16.90;99.90
40808;DHT22;26523;52.504;13.498;2023-09-19T05:53:06;16.90;99.90
40808;DHT22;26523;52.504;13.498;2023-09-19T05:55:32;16.90;99.90
40808;DHT22;26523;52.504;13.498;2023-09-19T05:57:59;16.90;99.90
40808;DHT22;26523;52.504;13.498;2023-09-19T06:00:25;16.80;99.90
40808;DHT22;26523;52.504;13.498;2023-09-19T06:02:56;16.90;99.90
40808;DHT22;26523;52.504;13.498;2023-09-19T06:05:28;16.90;99.90
40808;DHT22;26523;52.504;13.498;2023-09-19T06:07:56;16.90;99.90
40808;DHT22;26523;52.504;13.498;2023-09-19T06:10:25;16.90;99.90
40808;DHT22;26523;52.504;13.498;2023-09-19T06:12:51;17.00;99.90
40808;DHT22;26523;52.504;13.498;2023-09-19T06:15:17;17.00;99.90
40808;DHT22;26523;52.504;13.498;2023-09-19T06:17:55;17.00;99.90
40808;DHT22;26523;52.504;13.498;2023-09-19T06:20:21;17.00;99.90
40808;DHT22;26523;52.504;13.498;2023-09-19T06:22:48;17.00;99.90
40808;DHT22;26523;52.504;13.498;2023-09-19T06:25:14;17.10;99.90
40808;DHT22;26523;52.504;13.498;2023-09-19T06:27:48;17.10;99.90
40808;DHT22;26523;52.504;13.498;2023-09-19T06:30:14;17.10;99.90
40808;DHT22;26523;52.504;13.498;2023-09-19T06:32:41;17.20;99.90
40808;DHT22;26523;52.504;13.498;2023-09-19T06:35:10;17.20;99.90
40808;DHT22;26523;52.504;13.498;2023-09-19T06:37:37;17.10;99.90
40808;DHT22;26523;52.504;13.498;2023-09-19T06:40:09;17.20;99.90
40808;DHT22;26523;52.504;13.498;2023-09-19T06:42:51;17.10;99.90
40808;DHT22;26523;52.504;13.498;2023-09-19T06:45:18;17.10;99.90
40808;DHT22;26523;52.504;13.498;2023-09-19T06:47:52;17.20;99.90
40808;DHT22;26523;52.504;13.498;2023-09-19T06:50:37;17.30;99.90
40808;DHT22;26523;52.504;13.498;2023-09-19T06:53:04;17.40;99.90
40808;DHT22;26523;52.504;13.498;2023-09-19T06:55:29;17.50;99.90
40808;DHT22;26523;52.504;13.498;2023-09-19T06:57:57;17.50;99.90
40808;DHT22;26523;52.504;13.498;2023-09-19T07:00:24;17.60;99.90
40808;DHT22;26523;52.504;13.498;2023-09-19T07:03:03;17.70;99.90
40808;DHT22;26523;52.504;13.498;2023-09-19T07:05:31;17.70;99.90
40808;DHT22;26523;52.504;13.498;2023-09-19T07:07:57;17.80;99.90
40808;DHT22;26523;52.504;13.498;2023-09-19T07:10:29;18.00;99.90
40808;DHT22;26523;52.504;13.498;2023-09-19T07:13:06;18.20;99.90
40808;DHT22;26523;52.504;13.498;2023-09-19T07:15:35;18.40;99.90
40808;DHT22;26523;52.504;13.498;2023-09-19T07:18:02;18.70;99.90
40808;DHT22;26523;52.504;13.498;2023-09-19T07:20:28;19.00;99.90
40808;DHT22;26523;52.504;13.498;2023-09-19T07:22:57;19.40;99.90
40808;DHT22;26523;52.504;13.498;2023-09-19T07:25:25;19.80;99.90
40808;DHT22;26523;52.504;13.498;2023-09-19T07:27:51;20.20;99.90
40808;DHT22;26523;52.504;13.498;2023-09-19T07:30:16;20.30;99.90
40808;DHT22;26523;52.504;13.498;2023-09-19T07:32:43;20.50;99.90
40808;DHT22;26523;52.504;13.498;2023-09-19T07:35:09;20.70;99.90
40808;DHT22;26523;52.504;13.498;2023-09-19T07:37:34;20.80;99.90
40808;DHT22;26523;52.504;13.498;2023-09-19T07:40:04;21.40;99.90
40808;DHT22;26523;52.504;13.498;2023-09-19T07:42:35;21.70;99.90
40808;DHT22;26523;52.504;13.498;2023-09-19T07:45:03;21.70;99.90
40808;DHT22;26523;52.504;13.498;2023-09-19T07:47:31;21.90;99.90
40808;DHT22;26523;52.504;13.498;2023-09-19T07:49:59;21.90;99.90
40808;DHT22;26523;52.504;13.498;2023-09-19T07:52:27;22.00;99.90
40808;DHT22;26523;52.504;13.498;2023-09-19T07:54:55;21.70;99.90
40808;DHT22;26523;52.504;13.498;2023-09-19T07:57:24;21.50;99.90
40808;DHT22;26523;52.504;13.498;2023-09-19T07:59:51;21.20;99.90
40808;DHT22;26523;52.504;13.498;2023-09-19T08:02:17;21.40;99.90
40808;DHT22;26523;52.504;13.498;2023-09-19T08:04:44;22.20;99.90
40808;DHT22;26523;52.504;13.498;2023-09-19T08:07:12;22.60;99.90
40808;DHT22;26523;52.504;13.498;2023-09-19T08:09:39;22.60;99.90
40808;DHT22;26523;52.504;13.498;2023-09-19T08:12:06;22.50;99.90
40808;DHT22;26523;52.504;13.498;2023-09-19T08:14:33;22.50;99.90
40808;DHT22;26523;52.504;13.498;2023-09-19T08:16:59;22.30;99.90
40808;DHT22;26523;52.504;13.498;2023-09-19T08:19:26;21.80;99.90
40808;DHT22;26523;52.504;13.498;2023-09-19T08:21:58;21.70;99.90
40808;DHT22;26523;52.504;13.498;2023-09-19T08:24:26;21.90;99.90
40808;DHT22;26523;52.504;13.498;2023-09-19T08:26:56;21.90;99.90
40808;DHT22;26523;52.504;13.498;2023-09-19T08:29:24;21.80;99.90
40808;DHT22;26523;52.504;13.498;2023-09-19T08:31:55;21.60;99.90
40808;DHT22;26523;52.504;13.498;2023-09-19T08:34:22;21.30;99.90
40808;DHT22;26523;52.504;13.498;2023-09-19T08:36:53;21.10;99.90
40808;DHT22;26523;52.504;13.498;2023-09-19T08:39:25;20.70;99.90
40808;DHT22;26523;52.504;13.498;2023-09-19T08:41:57;20.60;99.90
40808;DHT22;26523;52.504;13.498;2023-09-19T08:44:24;20.70;99.90
40808;DHT22;26523;52.504;13.498;2023-09-19T08:46:55;21.10;99.90
40808;DHT22;26523;52.504;13.498;2023-09-19T08:49:36;21.60;99.90
40808;DHT22;26523;52.504;13.498;2023-09-19T08:52:10;21.50;99.90
40808;DHT22;26523;52.504;13.498;2023-09-19T08:54:40;21.20;99.90
40808;DHT22;26523;52.504;13.498;2023-09-19T08:57:07;21.00;99.90
40808;DHT22;26523;52.504;13.498;2023-09-19T08:59:41;20.90;99.90
40808;DHT22;26523;52.504;13.498;2023-09-19T09:02:11;21.00;99.90
40808;DHT22;26523;52.504;13.498;2023-09-19T09:04:42;20.90;99.90
40808;DHT22;26523;52.504;13.498;2023-09-19T09:07:13;21.00;99.90
40808;DHT22;26523;52.504;13.498;2023-09-19T09:09:39;21.00;99.90
40808;DHT22;26523;52.504;13.498;2023-09-19T09:12:12;21.00;99.90
40808;DHT22;26523;52.504;13.498;2023-09-19T09:14:40;21.10;99.90
40808;DHT22;26523;52.504;13.498;2023-09-19T09:17:07;21.10;99.90
40808;DHT22;26523;52.504;13.498;2023-09-19T09:19:33;21.20;99.90
40808;DHT22;26523;52.504;13.498;2023-09-19T09:22:11;21.10;99.90
40808;DHT22;26523;52.504;13.498;2023-09-19T09:24:50;21.10;99.90
40808;DHT22;26523;52.504;13.498;2023-09-19T09:27:19;21.00;99.90
40808;DHT22;26523;52.504;13.498;2023-09-19T09:29:46;21.00;99.90
40808;DHT22;26523;52.504;13.498;2023-09-19T09:34:59;21.10;99.90
40808;DHT22;26523;52.504;13.498;2023-09-19T09:37:26;21.10;99.90
40808;DHT22;26523;52.504;13.498;2023-09-19T09:39:55;21.10;99.90
40808;DHT22;26523;52.504;13.498;2023-09-19T09:42:45;21.20;99.90
40808;DHT22;26523;52.504;13.498;2023-09-19T09:45:22;21.50;99.90
40808;DHT22;26523;52.504;13.498;2023-09-19T09:48:02;21.20;99.90
40808;DHT22;26523;52.504;13.498;2023-09-19T09:50:47;21.10;99.90
40808;DHT22;26523;52.504;13.498;2023-09-19T09:53:23;21.00;99.90
40808;DHT22;26523;52.504;13.498;2023-09-19T09:56:09;21.20;99.90
40808;DHT22;26523;52.504;13.498;2023-09-19T09:58:52;21.30;99.90
40808;DHT22;26523;52.504;13.498;2023-09-19T10:01:24;21.60;99.90
40808;DHT22;26523;52.504;13.498;2023-09-19T10:03:57;21.60;99.90
40808;DHT22;26523;52.504;13.498;2023-09-19T10:06:23;21.70;99.80
40808;DHT22;26523;52.504;13.498;2023-09-19T10:11:44;21.20;99.90
40808;DHT22;26523;52.504;13.498;2023-09-19T10:14:12;21.00;99.70
40808;DHT22;26523;52.504;13.498;2023-09-19T10:16:46;21.00;99.90
40808;DHT22;26523;52.504;13.498;2023-09-19T10:19:29;21.10;98.50
40808;DHT22;26523;52.504;13.498;2023-09-19T10:21:55;21.10;97.90
40808;DHT22;26523;52.504;13.498;2023-09-19T10:24:37;21.10;98.50
40808;DHT22;26523;52.504;13.498;2023-09-19T10:27:06;21.00;99.50
40808;DHT22;26523;52.504;13.498;2023-09-19T10:29:36;20.90;99.00
40808;DHT22;26523;52.504;13.498;2023-09-19T10:32:05;20.80;98.60
40808;DHT22;26523;52.504;13.498;2023-09-19T10:34:35;20.80;99.20
40808;DHT22;26523;52.504;13.498;2023-09-19T10:37:02;20.80;98.40
40808;DHT22;26523;52.504;13.498;2023-09-19T10:39:35;20.80;98.30
40808;DHT22;26523;52.504;13.498;2023-09-19T10:42:06;20.80;98.40
40808;DHT22;26523;52.504;13.498;2023-09-19T10:44:38;20.80;98.80
40808;DHT22;26523;52.504;13.498;2023-09-19T10:47:09;20.70;98.20
40808;DHT22;26523;52.504;13.498;2023-09-19T10:49:35;20.80;98.20
40808;DHT22;26523;52.504;13.498;2023-09-19T10:52:01;20.80;97.90
40808;DHT22;26523;52.504;13.498;2023-09-19T10:54:30;21.10;97.50
40808;DHT22;26523;52.504;13.498;2023-09-19T10:57:00;21.30;97.90
40808;DHT22;26523;52.504;13.498;2023-09-19T10:59:30;21.30;97.90
40808;DHT22;26523;52.504;13.498;2023-09-19T11:02:00;21.30;97.90
40808;DHT22;26523;52.504;13.498;2023-09-19T11:04:40;21.20;98.30
40808;DHT22;26523;52.504;13.498;2023-09-19T11:07:13;21.10;96.50
40808;DHT22;26523;52.504;13.498;2023-09-19T11:09:52;21.00;96.40
40808;DHT22;26523;52.504;13.498;2023-09-19T11:15:08;21.00;97.00
40808;DHT22;26523;52.504;13.498;2023-09-19T11:17:41;20.90;97.00
40808;DHT22;26523;52.504;13.498;2023-09-19T11:30:42;20.90;96.70
40808;DHT22;26523;52.504;13.498;2023-09-19T11:36:18;20.90;95.70
40808;DHT22;26523;52.504;13.498;2023-09-19T11:39:02;21.00;97.90
40808;DHT22;26523;52.504;13.498;2023-09-19T11:41:39;20.90;96.40
40808;DHT22;26523;52.504;13.498;2023-09-19T11:46:32;20.90;96.00
40808;DHT22;26523;52.504;13.498;2023-09-19T11:49:08;20.90;97.80
40808;DHT22;26523;52.504;13.498;2023-09-19T11:51:50;20.80;97.30
40808;DHT22;26523;52.504;13.498;2023-09-19T11:54:20;20.70;96.40
40808;DHT22;26523;52.504;13.498;2023-09-19T11:56:54;20.70;97.90
40808;DHT22;26523;52.504;13.498;2023-09-19T11:59:20;20.80;97.20
40808;DHT22;26523;52.504;13.498;2023-09-19T12:01:53;20.80;96.00
40808;DHT22;26523;52.504;13.498;2023-09-19T12:04:42;20.70;96.00
40808;DHT22;26523;52.504;13.498;2023-09-19T12:07:15;20.80;97.20
40808;DHT22;26523;52.504;13.498;2023-09-19T12:09:45;20.80;97.20
40808;DHT22;26523;52.504;13.498;2023-09-19T12:12:23;20.90;96.80
40808;DHT22;26523;52.504;13.498;2023-09-19T12:14:54;21.00;95.80
40808;DHT22;26523;52.504;13.498;2023-09-19T12:17:34;20.90;96.60
40808;DHT22;26523;52.504;13.498;2023-09-19T12:20:01;20.90;96.40
40808;DHT22;26523;52.504;13.498;2023-09-19T12:22:44;20.90;96.30
40808;DHT22;26523;52.504;13.498;2023-09-19T12:25:10;20.90;96.10
40808;DHT22;26523;52.504;13.498;2023-09-19T12:27:49;20.90;96.90
40808;DHT22;26523;52.504;13.498;2023-09-19T12:30:18;21.00;94.60
40808;DHT22;26523;52.504;13.498;2023-09-19T12:32:46;21.10;95.10
40808;DHT22;26523;52.504;13.498;2023-09-19T12:35:31;21.10;94.80
40808;DHT22;26523;52.504;13.498;2023-09-19T12:38:00;21.20;95.30
40808;DHT22;26523;52.504;13.498;2023-09-19T12:40:26;21.20;94.70
40808;DHT22;26523;52.504;13.498;2023-09-19T12:42:59;21.30;94.80
40808;DHT22;26523;52.504;13.498;2023-09-19T12:45:31;21.30;95.70
40808;DHT22;26523;52.504;13.498;2023-09-19T12:48:26;21.10;94.40
40808;DHT22;26523;52.504;13.498;2023-09-19T12:51:10;21.20;94.00
40808;DHT22;26523;52.504;13.498;2023-09-19T12:53:42;21.20;94.50
40808;DHT22;26523;52.504;13.498;2023-09-19T12:56:12;21.20;94.70
40808;DHT22;26523;52.504;13.498;2023-09-19T13:01:19;21.20;94.70
40808;DHT22;26523;52.504;13.498;2023-09-19T13:03:45;21.20;95.10
40808;DHT22;26523;52.504;13.498;2023-09-19T13:06:13;21.20;94.50
40808;DHT22;26523;52.504;13.498;2023-09-19T13:08:44;21.20;94.10
40808;DHT22;26523;52.504;13.498;2023-09-19T13:11:16;21.20;96.00
40808;DHT22;26523;52.504;13.498;2023-09-19T13:13:48;21.10;93.20
40808;DHT22;26523;52.504;13.498;2023-09-19T13:16:16;21.10;95.00
40808;DHT22;26523;52.504;13.498;2023-09-19T13:18:52;21.10;94.70
40808;DHT22;26523;52.504;13.498;2023-09-19T13:21:32;21.20;94.50
40808;DHT22;26523;52.504;13.498;2023-09-19T13:24:25;21.20;94.90
40808;DHT22;26523;52.504;13.498;2023-09-19T13:26:55;21.30;95.30
40808;DHT22;26523;52.504;13.498;2023-09-19T13:29:26;21.20;94.30
40808;DHT22;26523;52.504;13.498;2023-09-19T13:31:55;21.20;94.70
40808;DHT22;26523;52.504;13.498;2023-09-19T13:34:21;21.20;95.30
40808;DHT22;26523;52.504;13.498;2023-09-19T13:36:47;21.10;93.40
40808;DHT22;26523;52.504;13.498;2023-09-19T13:39:16;21.10;93.90
40808;DHT22;26523;52.504;13.498;2023-09-19T13:41:47;21.10;93.60
40808;DHT22;26523;52.504;13.498;2023-09-19T13:44:13;21.10;94.50
40808;DHT22;26523;52.504;13.498;2023-09-19T13:46:44;21.10;94.00
40808;DHT22;26523;52.504;13.498;2023-09-19T13:49:11;21.00;94.00
40808;DHT22;26523;52.504;13.498;2023-09-19T13:51:37;21.00;93.80
40808;DHT22;26523;52.504;13.498;2023-09-19T13:54:03;21.00;93.50
40808;DHT22;26523;52.504;13.498;2023-09-19T13:56:28;21.00;94.50
40808;DHT22;26523;52.504;13.498;2023-09-19T13:58:56;21.00;94.40
40808;DHT22;26523;52.504;13.498;2023-09-19T14:01:23;20.90;94.40
40808;DHT22;26523;52.504;13.498;2023-09-19T14:03:49;21.00;94.30
40808;DHT22;26523;52.504;13.498;2023-09-19T14:06:18;20.90;94.00
40808;DHT22;26523;52.504;13.498;2023-09-19T14:08:44;20.80;93.80
40808;DHT22;26523;52.504;13.498;2023-09-19T14:11:16;20.90;95.20
40808;DHT22;26523;52.504;13.498;2023-09-19T14:13:42;20.90;94.10
40808;DHT22;26523;52.504;13.498;2023-09-19T14:16:12;20.90;93.50
40808;DHT22;26523;52.504;13.498;2023-09-19T14:18:38;21.00;93.60
40808;DHT22;26523;52.504;13.498;2023-09-19T14:21:07;20.90;94.20
40808;DHT22;26523;52.504;13.498;2023-09-19T14:23:44;20.90;94.10
40808;DHT22;26523;52.504;13.498;2023-09-19T14:26:11;20.90;93.70
40808;DHT22;26523;52.504;13.498;2023-09-19T14:28:37;21.00;93.60
40808;DHT22;26523;52.504;13.498;2023-09-19T14:31:13;20.90;94.10
40808;DHT22;26523;52.504;13.498;2023-09-19T14:33:41;20.90;94.30
40808;DHT22;26523;52.504;13.498;2023-09-19T14:36:08;20.90;95.20
40808;DHT22;26523;52.504;13.498;2023-09-19T14:38:36;20.90;94.10
40808;DHT22;26523;52.504;13.498;2023-09-19T14:41:03;21.00;93.70
40808;DHT22;26523;52.504;13.498;2023-09-19T14:43:29;21.00;93.90
40808;DHT22;26523;52.504;13.498;2023-09-19T14:46:05;21.00;94.10
40808;DHT22;26523;52.504;13.498;2023-09-19T14:48:33;21.00;94.10
40808;DHT22;26523;52.504;13.498;2023-09-19T14:51:03;21.00;94.30
40808;DHT22;26523;52.504;13.498;2023-09-19T14:53:30;20.80;94.60
40808;DHT22;26523;52.504;13.498;2023-09-19T14:55:56;20.90;94.30
40808;DHT22;26523;52.504;13.498;2023-09-19T14:58:23;20.90;94.40
40808;DHT22;26523;52.504;13.498;2023-09-19T15:00:52;20.90;95.10
40808;DHT22;26523;52.504;13.498;2023-09-19T15:03:20;20.90;95.40
40808;DHT22;26523;52.504;13.498;2023-09-19T15:05:46;20.80;94.80
40808;DHT22;26523;52.504;13.498;2023-09-19T15:08:15;20.80;94.70
40808;DHT22;26523;52.504;13.498;2023-09-19T15:10:50;20.80;96.20
40808;DHT22;26523;52.504;13.498;2023-09-19T15:13:20;20.70;94.10
40808;DHT22;26523;52.504;13.498;2023-09-19T15:15:46;20.70;94.00
40808;DHT22;26523;52.504;13.498;2023-09-19T15:18:14;20.60;93.80
40808;DHT22;26523;52.504;13.498;2023-09-19T15:20:48;20.60;93.70
40808;DHT22;26523;52.504;13.498;2023-09-19T15:23:14;20.60;95.10
40808;DHT22;26523;52.504;13.498;2023-09-19T15:25:49;20.50;94.00
40808;DHT22;26523;52.504;13.498;2023-09-19T15:28:14;20.50;93.40
40808;DHT22;26523;52.504;13.498;2023-09-19T15:30:40;20.50;93.90
40808;DHT22;26523;52.504;13.498;2023-09-19T15:33:06;20.40;93.70
40808;DHT22;26523;52.504;13.498;2023-09-19T15:35:32;20.40;94.70
40808;DHT22;26523;52.504;13.498;2023-09-19T15:37:58;20.30;93.70
40808;DHT22;26523;52.504;13.498;2023-09-19T15:40:27;20.30;94.60
40808;DHT22;26523;52.504;13.498;2023-09-19T15:42:56;20.30;93.50
40808;DHT22;26523;52.504;13.498;2023-09-19T15:45:23;20.30;93.70
40808;DHT22;26523;52.504;13.498;2023-09-19T15:47:50;20.20;93.30
40808;DHT22;26523;52.504;13.498;2023-09-19T15:50:22;20.20;95.40
40808;DHT22;26523;52.504;13.498;2023-09-19T15:52:53;20.20;93.90
40808;DHT22;26523;52.504;13.498;2023-09-19T15:55:20;20.20;94.00
40808;DHT22;26523;52.504;13.498;2023-09-19T15:57:46;20.20;94.20
40808;DHT22;26523;52.504;13.498;2023-09-19T16:00:13;20.10;94.70
40808;DHT22;26523;52.504;13.498;2023-09-19T16:02:44;20.10;95.20
40808;DHT22;26523;52.504;13.498;2023-09-19T16:05:10;20.20;94.80
40808;DHT22;26523;52.504;13.498;2023-09-19T16:07:38;20.10;94.80
40808;DHT22;26523;52.504;13.498;2023-09-19T16:10:06;20.10;94.90
40808;DHT22;26523;52.504;13.498;2023-09-19T16:12:33;20.10;95.30
40808;DHT22;26523;52.504;13.498;2023-09-19T16:14:58;20.00;94.70